Time;durP1;ratioP1;P1;durP2;ratioP2;P2;SDS_P1;SDS_P2;PMS_P1;PMS_P2;Temp;Humidity;BMP_temperature;BMP_pressure;BME280_temperature;BME280_humidity;BME280_pressure;Samples;Min_cycle;Max_cycle;Signal;HPM_P1;HPM_P2
2021/04/12 00:00:34;;;;;;;39.06;26.04;;;;;;;7.99;35.55;100193.77;353529;112;1962029;-72
2021/04/12 00:01:52;;;;;;;44.42;25.98;;;;;;;7.97;35.49;100192.27;332625;114;1960684;-72
2021/04/12 00:03:04;;;;;;;41.13;27.12;;;;;;;7.93;35.45;100197.97;354352;112;1962068;-72
2021/04/12 00:04:13;;;;;;;36.13;24.77;;;;;;;7.93;35.51;100195.28;349474;112;1964036;-72
2021/04/12 00:05:47;;;;;;;41.36;26.92;;;;;;;7.95;35.43;100192.43;321950;112;1962084;-72
2021/04/12 00:07:15;;;;;;;42.27;26.35;;;;;;;7.96;35.46;100190.57;336074;112;2957135;-72
2021/04/12 00:08:27;;;;;;;42.15;26.02;;;;;;;7.95;35.54;100194.29;351500;112;1961952;-72
2021/04/12 00:09:52;;;;;;;42.59;28.01;;;;;;;7.92;35.65;100193.62;321867;112;2590334;-72
2021/04/12 00:11:16;;;;;;;47.25;27.49;;;;;;;7.92;35.73;100195.48;330363;112;2446994;-73
2021/04/12 00:12:30;;;;;;;41.33;25.84;;;;;;;7.91;35.80;100207.23;357801;112;1963970;-73
2021/04/12 00:13:52;;;;;;;43.86;27.28;;;;;;;7.87;35.98;100203.23;357289;112;1962002;-73
2021/04/12 00:15:01;;;;;;;40.92;24.95;;;;;;;7.85;35.94;100202.56;330166;112;1961953;-72
2021/04/12 00:16:44;;;;;;;43.72;26.62;;;;;;;7.83;36.00;100201.89;334400;112;2389615;-72
2021/04/12 00:17:53;;;;;;;44.11;26.63;;;;;;;7.80;36.05;100195.01;357157;112;1960780;-73
2021/04/12 00:19:06;;;;;;;41.33;26.58;;;;;;;7.81;36.05;100198.56;359517;112;1960771;-72
2021/04/12 00:20:43;;;;;;;41.16;26.03;;;;;;;7.81;36.03;100198.56;358297;112;1961850;-72
2021/04/12 00:21:52;;;;;;;42.94;26.69;;;;;;;7.78;36.02;100199.75;359191;112;1961904;-72
2021/04/12 00:23:13;;;;;;;41.24;26.91;;;;;;;7.78;36.07;100198.88;357679;111;1962031;-73
2021/04/12 00:24:25;;;;;;;43.88;27.16;;;;;;;7.76;36.11;100190.18;345055;116;1962044;-72
2021/04/12 00:25:37;;;;;;;38.44;26.45;;;;;;;7.73;36.15;100194.05;352077;112;1961992;-72
2021/04/12 00:27:02;;;;;;;41.93;27.75;;;;;;;7.73;36.10;100195.88;357001;112;1963039;-72
2021/04/12 00:28:15;;;;;;;42.85;27.85;;;;;;;7.63;36.10;100183.50;357297;112;1961952;-73
2021/04/12 00:29:29;;;;;;;44.29;27.09;;;;;;;7.69;36.15;100192.71;358396;112;1961977;-72
2021/04/12 00:30:48;;;;;;;40.93;27.03;;;;;;;7.68;36.24;100191.88;358957;112;1961928;-72
2021/04/12 00:32:00;;;;;;;46.87;26.81;;;;;;;7.66;36.09;100196.59;310901;114;1990633;-72
2021/04/12 00:33:12;;;;;;;43.62;26.34;;;;;;;7.66;36.06;100193.06;354664;112;1964009;-73
2021/04/12 00:34:22;;;;;;;43.38;26.57;;;;;;;7.66;36.06;100193.06;329992;112;2469048;-72
2021/04/12 00:35:56;;;;;;;39.13;25.67;;;;;;;7.65;35.99;100186.85;303378;116;2741942;-72
2021/04/12 00:37:07;;;;;;;43.39;26.23;;;;;;;7.66;35.97;100185.00;338849;118;1961888;-71
2021/04/12 00:38:32;;;;;;;46.87;26.75;;;;;;;7.68;35.90;100185.67;328420;115;1961911;-72
2021/04/12 00:39:52;;;;;;;44.86;27.60;;;;;;;7.67;35.83;100187.53;316415;114;1961958;-73
2021/04/12 00:41:36;;;;;;;46.44;27.52;;;;;;;7.67;35.83;100187.53;344844;116;1961996;-72
2021/04/12 00:42:52;;;;;;;46.23;26.82;;;;;;;7.66;35.75;100185.83;337899;114;1965067;-72
2021/04/12 00:44:00;;;;;;;42.79;26.41;;;;;;;7.64;35.84;100179.78;340456;114;1962022;-71
2021/04/12 00:45:25;;;;;;;47.67;27.08;;;;;;;7.63;35.85;100194.25;312029;114;2237036;-72
2021/04/12 00:46:52;;;;;;;44.73;26.94;;;;;;;7.61;35.96;100192.75;324611;114;2436936;-72
2021/04/12 00:48:01;;;;;;;41.47;26.57;;;;;;;7.57;36.10;100194.95;350027;114;1962073;-72
2021/04/12 00:49:16;;;;;;;51.33;28.54;;;;;;;7.55;36.08;100190.77;348911;115;1962014;-73
2021/04/12 00:50:33;;;;;;;52.46;26.89;;;;;;;7.53;36.16;100192.78;345951;115;1964016;-72
2021/04/12 00:52:01;;;;;;;47.23;27.18;;;;;;;7.52;36.18;100183.05;313948;117;2478001;-73
2021/04/12 00:53:23;;;;;;;45.77;26.84;;;;;;;7.52;36.10;100180.36;353460;112;1960735;-72
2021/04/12 00:54:44;;;;;;;46.17;26.41;;;;;;;7.49;36.14;100181.55;323813;110;2002749;-73
2021/04/12 00:55:54;;;;;;;51.11;27.85;;;;;;;7.48;36.05;100180.68;363357;110;1965102;-73
2021/04/12 00:57:03;;;;;;;41.40;26.27;;;;;;;7.48;36.01;100183.37;359766;111;1962881;-72
2021/04/12 00:58:21;;;;;;;47.64;25.46;;;;;;;7.48;36.07;100186.05;328754;111;1960998;-72
2021/04/12 00:59:51;;;;;;;48.72;27.07;;;;;;;7.48;36.01;100185.23;359403;111;1962012;-72
2021/04/12 01:01:10;;;;;;;43.28;25.54;;;;;;;7.49;36.08;100178.86;325064;111;2570995;-72
2021/04/12 01:02:36;;;;;;;50.93;28.34;;;;;;;7.49;36.19;100182.38;357258;111;1963002;-72
2021/04/12 01:04:05;;;;;;;47.96;26.43;;;;;;;7.48;36.22;100183.37;358265;112;1962007;-73
2021/04/12 01:05:24;;;;;;;49.06;27.00;;;;;;;7.48;36.19;100185.23;333810;111;2939090;-73
2021/04/12 01:06:37;;;;;;;40.79;25.85;;;;;;;7.45;36.15;100186.41;358557;111;1961990;-73
2021/04/12 01:07:51;;;;;;;48.77;27.17;;;;;;;7.45;36.28;100189.09;344553;111;1960778;-73
2021/04/12 01:09:28;;;;;;;49.29;27.11;;;;;;;7.44;36.50;100190.12;357302;111;1960935;-72
2021/04/12 01:10:55;;;;;;;49.09;27.08;;;;;;;7.43;36.65;100187.59;350167;115;1962846;-72
2021/04/12 01:12:20;;;;;;;41.99;24.97;;;;;;;7.40;36.63;100185.25;322516;115;2404067;-72
2021/04/12 01:13:32;;;;;;;41.41;26.36;;;;;;;7.38;36.91;100184.58;320392;116;1960737;-72
2021/04/12 01:15:04;;;;;;;45.80;27.42;;;;;;;7.36;36.99;100179.39;357599;111;1961995;-74
2021/04/12 01:16:33;;;;;;;48.90;27.72;;;;;;;7.35;37.08;100176.87;341797;111;2236997;-72
2021/04/12 01:18:07;;;;;;;46.45;26.91;;;;;;;7.32;37.16;100175.36;311826;111;2134165;-73
2021/04/12 01:19:28;;;;;;;44.83;28.10;;;;;;;7.32;37.75;100185.28;359893;111;1964056;-73
2021/04/12 01:20:39;;;;;;;;;;;;;;;7.29;37.62;100180.25;361420;111;1963993;-73
2021/04/12 01:22:22;;;;;;;44.52;26.88;;;;;;;7.26;37.75;100176.06;358390;111;1960949;-72
2021/04/12 01:23:50;;;;;;;45.41;26.64;;;;;;;7.24;37.66;100173.53;312187;112;2754975;-72
2021/04/12 01:25:07;;;;;;;43.79;28.02;;;;;;;7.23;37.59;100168.34;354581;112;1962050;-73
2021/04/12 01:26:30;;;;;;;42.67;27.29;;;;;;;7.21;37.44;100165.81;352695;113;1961964;-73
2021/04/12 01:27:59;;;;;;;48.62;28.87;;;;;;;7.19;37.42;100167.00;357913;105;1961823;-73
2021/04/12 01:29:37;;;;;;;44.87;27.65;;;;;;;7.18;37.29;100162.65;361439;110;1964426;-73
2021/04/12 01:31:05;;;;;;;40.67;25.64;;;;;;;7.16;37.47;100162.80;353656;113;1961953;-72
2021/04/12 01:32:31;;;;;;;43.14;25.48;;;;;;;7.15;37.38;100163.83;297443;110;2221253;-72
2021/04/12 01:33:40;;;;;;;46.79;27.24;;;;;;;7.14;37.32;100156.76;352211;113;1961931;-73
2021/04/12 01:35:21;;;;;;;45.00;27.48;;;;;;;7.11;37.33;100157.11;298112;113;2187779;-72
2021/04/12 01:36:55;;;;;;;46.98;27.48;;;;;;;7.11;37.29;100157.11;352133;113;1961948;-73
2021/04/12 01:38:22;;;;;;;40.91;25.29;;;;;;;7.09;37.23;100155.60;323815;113;1962969;-73
2021/04/12 01:39:57;;;;;;;44.13;27.07;;;;;;;6.99;37.13;100140.52;351441;113;1963910;-73
2021/04/12 01:41:16;;;;;;;43.27;26.88;;;;;;;7.09;37.14;100152.91;351846;113;1964991;-73
2021/04/12 01:42:38;;;;;;;37.64;26.24;;;;;;;7.08;36.96;100152.08;351583;113;1960865;-73
2021/04/12 01:44:02;;;;;;;39.26;25.67;;;;;;;7.07;37.15;100150.42;307820;114;2074759;-73
2021/04/12 01:45:26;;;;;;;41.99;27.06;;;;;;;7.06;37.09;100148.72;331989;113;2313751;-73
2021/04/12 01:46:49;;;;;;;39.58;26.52;;;;;;;7.06;37.05;100148.72;318312;113;2592020;-72
2021/04/12 01:48:13;;;;;;;38.44;24.27;;;;;;;7.07;36.93;100138.84;351837;113;1964034;-72
2021/04/12 01:49:25;;;;;;;37.28;25.42;;;;;;;7.06;36.87;100143.34;352409;113;1963943;-72
2021/04/12 01:50:59;;;;;;;39.99;25.80;;;;;;;7.08;36.90;100140.50;311380;115;2606992;-73
2021/04/12 01:52:12;;;;;;;39.56;26.33;;;;;;;7.08;36.91;100135.13;343495;115;1962041;-72
2021/04/12 01:53:49;;;;;;;44.57;27.84;;;;;;;7.07;36.86;100136.98;345088;115;1963034;-73
2021/04/12 01:55:23;;;;;;;38.41;25.91;;;;;;;7.07;36.98;100138.84;303158;115;2811046;-73
2021/04/12 01:56:33;;;;;;;41.53;26.16;;;;;;;7.04;37.03;100131.96;341351;113;1960733;-73
2021/04/12 01:57:59;;;;;;;44.67;26.66;;;;;;;7.02;37.17;100131.28;347326;114;1961994;-73
2021/04/12 01:59:36;;;;;;;40.17;26.32;;;;;;;7.01;37.11;100132.28;299924;114;2175926;-73
2021/04/12 02:00:54;;;;;;;38.15;25.68;;;;;;;7.00;37.13;100128.76;350908;114;1961993;-73
2021/04/12 02:02:30;;;;;;;42.44;27.78;;;;;;;6.99;37.18;100120.89;332234;119;1964969;-73
2021/04/12 02:04:01;;;;;;;40.01;25.67;;;;;;;6.99;37.19;100123.58;352894;112;1961962;-72
2021/04/12 02:05:40;;;;;;;42.62;25.33;;;;;;;6.98;37.19;100117.34;352106;112;1962934;-72
2021/04/12 02:07:10;;;;;;;38.66;25.31;;;;;;;6.97;37.30;100117.53;354759;109;1960680;-72
2021/04/12 02:08:21;;;;;;;41.26;25.42;;;;;;;6.96;37.34;100122.07;340695;117;1964072;-72
2021/04/12 02:09:44;;;;;;;;;;;;;;;6.96;37.39;100115.84;324363;110;2551926;-72
2021/04/12 02:11:17;;;;;;;38.24;24.73;;;;;;;6.94;37.74;100113.34;359282;110;1960683;-72
2021/04/12 02:12:56;;;;;;;40.92;24.90;;;;;;;6.94;37.55;100118.71;352093;112;1962986;-72
2021/04/12 02:14:20;;;;;;;39.10;24.91;;;;;;;6.95;37.47;100119.55;326515;112;2478880;-72
2021/04/12 02:15:38;;;;;;;41.69;25.41;;;;;;;6.93;37.49;100118.87;310971;112;2890105;-72
2021/04/12 02:17:17;;;;;;;40.90;26.60;;;;;;;6.93;37.46;100111.67;353469;112;1960817;-72
2021/04/12 02:18:41;;;;;;;38.76;25.88;;;;;;;6.92;37.54;100115.35;350912;112;1961932;-72
2021/04/12 02:20:11;;;;;;;39.01;24.42;;;;;;;6.90;37.63;100111.16;352503;112;1961844;-72
2021/04/12 02:21:37;;;;;;;40.44;26.31;;;;;;;6.89;37.75;100112.18;353360;112;1961976;-72
2021/04/12 02:22:59;;;;;;;41.67;26.98;;;;;;;6.87;37.79;100114.19;352219;112;1962455;-72
2021/04/12 02:24:12;;;;;;;44.90;26.18;;;;;;;6.85;37.85;100111.66;351402;112;1961977;-72
2021/04/12 02:25:46;;;;;;;42.88;28.10;;;;;;;6.86;37.92;100112.53;342514;116;1961952;-72
2021/04/12 02:26:59;;;;;;;39.68;26.35;;;;;;;6.85;38.00;100117.03;351125;112;1961103;-72
2021/04/12 02:28:27;;;;;;;39.99;26.58;;;;;;;6.83;37.98;100119.08;354462;114;1963025;-72
2021/04/12 02:29:45;;;;;;;40.27;27.17;;;;;;;6.80;38.09;100112.20;321679;115;2432966;-72
2021/04/12 02:31:00;;;;;;;41.81;26.74;;;;;;;6.80;38.01;100117.57;346364;115;1962012;-72
2021/04/12 02:32:11;;;;;;;39.54;25.48;;;;;;;6.80;38.00;100111.34;313905;115;2553872;-73
2021/04/12 02:33:44;;;;;;;42.77;28.37;;;;;;;6.78;38.05;100111.52;313248;117;2917064;-72
2021/04/12 02:35:19;;;;;;;39.88;26.84;;;;;;;6.78;38.12;100113.38;346253;117;1960971;-72
2021/04/12 02:36:47;;;;;;;42.82;26.43;;;;;;;6.75;38.21;100119.92;308156;115;2626935;-72
2021/04/12 02:38:20;;;;;;;41.32;26.21;;;;;;;6.73;38.47;100115.73;323739;123;1967020;-72
2021/04/12 02:39:44;;;;;;;;;;;;;;;6.71;38.59;100113.20;289076;123;2074769;-72
2021/04/12 02:40:59;;;;;;;45.09;27.47;;;;;;;6.68;39.09;100115.41;286125;122;2233011;-71
2021/04/12 02:42:35;;;;;;;45.43;26.09;;;;;;;6.67;39.12;100119.08;269551;124;2236494;-72
2021/04/12 02:44:01;;;;;;;42.72;26.91;;;;;;;6.64;38.87;100106.00;327520;122;1960988;-72
2021/04/12 02:45:33;;;;;;;40.06;25.53;;;;;;;6.63;38.74;100109.70;331491;117;1961072;-72
2021/04/12 02:47:12;;;;;;;43.03;26.98;;;;;;;6.61;38.75;100104.48;314473;117;2397012;-72
2021/04/12 02:48:27;;;;;;;38.72;25.58;;;;;;;6.60;38.76;100105.51;319309;116;2274856;-71
2021/04/12 02:49:37;;;;;;;42.47;26.32;;;;;;;6.58;38.86;100108.34;286187;115;2201983;-72
2021/04/12 02:51:06;;;;;;;43.95;27.28;;;;;;;6.58;38.92;100108.34;303250;118;2702797;-73
2021/04/12 02:52:34;;;;;;;45.51;27.09;;;;;;;6.56;38.92;100106.84;340261;117;1960792;-72
2021/04/12 02:54:01;;;;;;;44.52;26.52;;;;;;;6.57;39.01;100101.31;346194;114;1961758;-72
2021/04/12 02:55:23;;;;;;;40.02;26.88;;;;;;;6.57;38.78;100101.31;315836;115;2237882;-72
2021/04/12 02:57:09;;;;;;;45.42;28.18;;;;;;;6.58;38.70;100099.46;339091;118;1960787;-72
2021/04/12 02:58:21;;;;;;;43.64;24.98;;;;;;;6.56;38.85;100107.70;337417;118;1960824;-72
2021/04/12 02:59:54;;;;;;;44.18;27.64;;;;;;;6.56;38.78;100098.79;328637;121;1961964;-72
2021/04/12 03:01:13;;;;;;;38.00;24.89;;;;;;;6.56;39.00;100098.79;319841;119;2307920;-72
2021/04/12 03:02:53;;;;;;;45.69;26.24;;;;;;;6.56;38.93;100093.42;344166;116;1960949;-72
2021/04/12 03:04:11;;;;;;;44.73;27.93;;;;;;;6.55;38.89;100089.91;339346;117;1961979;-72
2021/04/12 03:05:39;;;;;;;39.76;25.91;;;;;;;6.54;38.95;100090.09;340655;117;1961962;-72
2021/04/12 03:07:15;;;;;;;44.23;26.49;;;;;;;6.54;38.91;100090.09;311523;117;1962039;-71
2021/04/12 03:08:37;;;;;;;39.74;25.38;;;;;;;6.53;38.91;100094.59;342697;115;1961904;-72
2021/04/12 03:10:21;;;;;;;42.73;27.30;;;;;;;6.53;38.90;100088.39;307411;117;2921954;-73
2021/04/12 03:12:02;;;;;;;40.14;25.09;;;;;;;6.52;38.84;100082.20;343732;115;1961983;-72
2021/04/12 03:13:28;;;;;;;39.01;23.37;;;;;;;6.55;38.66;100087.22;318341;117;1961995;-72
2021/04/12 03:14:55;;;;;;;45.49;25.09;;;;;;;6.60;38.61;100073.30;345177;115;1961976;-72
2021/04/12 03:16:17;;;;;;;41.77;25.36;;;;;;;6.61;38.81;100072.28;300184;117;2753931;-72
2021/04/12 03:17:52;;;;;;;42.59;25.05;;;;;;;6.62;38.62;100071.29;339197;117;1961947;-72
2021/04/12 03:19:24;;;;;;;46.48;25.34;;;;;;;6.63;38.61;100072.95;342304;117;1961995;-72
2021/04/12 03:20:51;;;;;;;37.07;24.26;;;;;;;6.67;38.59;100073.44;307665;117;2047411;-72
2021/04/12 03:22:29;;;;;;;45.02;24.35;;;;;;;6.67;38.51;100073.44;336870;118;1961879;-72
2021/04/12 03:23:47;;;;;;;44.62;23.04;;;;;;;6.68;38.49;100077.81;299168;117;2127523;-72
2021/04/12 03:25:02;;;;;;;41.71;25.33;;;;;;;6.69;38.42;100074.94;338691;117;1961969;-73
2021/04/12 03:26:19;;;;;;;41.99;24.58;;;;;;;6.68;38.48;100075.97;298345;115;2854068;-72
2021/04/12 03:28:01;;;;;;;45.60;24.98;;;;;;;6.69;38.54;100074.11;308230;117;1961937;-72
2021/04/12 03:29:29;;;;;;;42.48;24.74;;;;;;;6.69;38.41;100074.11;299796;117;2009268;-72
2021/04/12 03:30:47;;;;;;;38.26;23.89;;;;;;;6.72;38.46;100073.77;338257;119;1960728;-72
2021/04/12 03:32:05;;;;;;;41.67;24.63;;;;;;;6.72;38.43;100077.31;290778;120;2234853;-73
2021/04/12 03:33:29;;;;;;;40.96;24.38;;;;;;;6.75;38.44;100078.82;331837;121;1960937;-72
2021/04/12 03:34:41;;;;;;;40.52;24.11;;;;;;;6.77;38.50;100079.46;334886;119;1960949;-72
2021/04/12 03:35:51;;;;;;;;;;;;;;;6.78;38.52;100075.79;305402;121;2548903;-72
2021/04/12 03:37:24;;;;;;;42.49;25.43;;;;;;;6.79;38.74;100085.50;318328;119;1960836;-72
2021/04/12 03:39:06;;;;;;;45.14;27.76;;;;;;;6.81;38.57;100076.27;342776;115;1960760;-71
2021/04/12 03:40:18;;;;;;;39.56;26.06;;;;;;;6.83;38.50;100073.43;346329;115;1960912;-71
2021/04/12 03:41:33;;;;;;;43.03;24.93;;;;;;;6.83;38.76;100078.80;347430;116;1960954;-72
2021/04/12 03:43:02;;;;;;;43.18;25.11;;;;;;;6.82;38.76;100080.63;346379;115;1969035;-72
2021/04/12 03:44:29;;;;;;;38.86;24.30;;;;;;;6.82;38.67;100077.94;346510;115;1960863;-72
2021/04/12 03:45:58;;;;;;;46.12;26.37;;;;;;;6.82;38.81;100083.31;322438;115;1960713;-73
2021/04/12 03:47:27;;;;;;;40.27;25.73;;;;;;;6.87;38.93;100080.11;297813;115;2854850;-72
2021/04/12 03:48:36;;;;;;;40.63;26.11;;;;;;;6.90;38.81;100086.99;346784;115;1960733;-72
2021/04/12 03:49:49;;;;;;;41.38;27.29;;;;;;;6.89;38.89;100078.10;347701;115;1960935;-71
2021/04/12 03:51:24;;;;;;;43.33;27.21;;;;;;;6.89;38.88;100078.10;344984;116;1960869;-73
2021/04/12 03:53:00;;;;;;;43.76;25.57;;;;;;;6.90;38.89;100079.77;346881;116;1960957;-72
2021/04/12 03:54:31;;;;;;;43.35;26.83;;;;;;;6.90;38.81;100079.77;347259;115;1960753;-73
2021/04/12 03:56:03;;;;;;;38.82;25.64;;;;;;;6.93;39.03;100083.95;310218;115;1963796;-73
2021/04/12 03:57:44;;;;;;;39.63;25.96;;;;;;;6.95;38.92;100071.20;347337;115;1961959;-72
2021/04/12 03:59:28;;;;;;;43.99;25.27;;;;;;;6.94;39.08;100078.42;346916;116;1960967;-73
2021/04/12 04:01:03;;;;;;;45.36;26.88;;;;;;;6.94;39.05;100077.59;346153;116;1960819;-73
2021/04/12 04:02:33;;;;;;;43.46;26.42;;;;;;;6.95;39.01;100076.57;346840;115;1960764;-73
2021/04/12 04:03:54;;;;;;;40.96;26.61;;;;;;;6.95;39.03;100072.03;343987;116;1961851;-73
2021/04/12 04:05:33;;;;;;;41.54;26.04;;;;;;;6.97;39.10;100063.81;308887;115;1984444;-72
2021/04/12 04:06:57;;;;;;;43.52;25.87;;;;;;;6.97;39.27;100070.02;315215;115;2577847;-72
2021/04/12 04:08:12;;;;;;;44.17;26.93;;;;;;;6.99;39.22;100064.48;346845;115;1960901;-72
2021/04/12 04:09:40;;;;;;;46.94;27.39;;;;;;;7.00;39.35;100063.47;344871;115;1960811;-72
2021/04/12 04:11:20;;;;;;;44.26;26.97;;;;;;;7.01;39.50;100065.13;339492;117;1960796;-73
2021/04/12 04:12:35;;;;;;;48.95;26.99;;;;;;;7.02;39.78;100059.59;340584;117;1961971;-72
2021/04/12 04:14:08;;;;;;;45.20;28.37;;;;;;;7.05;40.22;100069.98;343064;115;1960946;-72
2021/04/12 04:15:38;;;;;;;51.45;29.53;;;;;;;7.05;39.77;100066.47;335745;118;1961923;-73
2021/04/12 04:16:50;;;;;;;46.23;28.73;;;;;;;7.07;39.88;100058.25;337576;118;1960781;-73
2021/04/12 04:18:03;;;;;;;;;;;;;;;7.06;40.39;100060.08;339367;119;1959794;-73
2021/04/12 04:19:44;;;;;;;49.44;27.61;;;;;;;7.09;40.20;100058.89;340015;118;1960863;-73
2021/04/12 04:20:57;;;;;;;50.44;27.68;;;;;;;7.11;40.09;100060.39;329984;120;1960757;-72
2021/04/12 04:22:12;;;;;;;44.12;28.24;;;;;;;7.14;40.17;100072.64;334063;120;1961920;-73
2021/04/12 04:23:27;;;;;;;46.19;27.83;;;;;;;7.14;40.26;100062.73;332945;120;1960923;-73
2021/04/12 04:24:56;;;;;;;45.56;26.99;;;;;;;7.16;40.25;100063.40;336614;119;1960823;-73
2021/04/12 04:26:40;;;;;;;43.71;27.93;;;;;;;7.18;40.59;100066.76;342130;118;1960801;-73
2021/04/12 04:27:54;;;;;;;50.59;28.21;;;;;;;7.21;40.53;100065.58;327878;118;1960840;-73
2021/04/12 04:29:25;;;;;;;50.47;28.32;;;;;;;7.22;40.64;100067.23;333903;122;1961931;-73
2021/04/12 04:30:53;;;;;;;47.27;28.22;;;;;;;7.24;40.64;100068.73;341000;117;1960833;-72
2021/04/12 04:32:11;;;;;;;46.16;28.46;;;;;;;7.26;40.83;100071.27;316793;113;1975689;-72
2021/04/12 04:33:34;;;;;;;50.26;30.22;;;;;;;7.30;41.11;100064.51;354766;113;1960780;-72
2021/04/12 04:35:16;;;;;;;50.49;29.77;;;;;;;7.31;41.13;100070.75;354918;113;1960804;-72
2021/04/12 04:36:59;;;;;;;47.55;28.31;;;;;;;7.34;41.05;100070.39;353470;113;1961983;-73
2021/04/12 04:38:37;;;;;;;45.07;28.39;;;;;;;7.38;41.03;100071.70;354369;113;1962845;-72
2021/04/12 04:39:53;;;;;;;44.43;27.34;;;;;;;7.38;41.35;100072.56;353469;113;1960904;-72
2021/04/12 04:41:18;;;;;;;54.53;29.76;;;;;;;7.41;41.57;100068.66;354471;115;1961874;-72
2021/04/12 04:43:04;;;;;;;46.37;29.53;;;;;;;7.44;41.43;100071.02;353739;113;1960823;-72
2021/04/12 04:44:39;;;;;;;53.63;29.65;;;;;;;7.46;41.81;100063.59;354003;113;1961924;-73
2021/04/12 04:46:01;;;;;;;45.24;29.51;;;;;;;7.48;41.66;100064.27;325961;113;2942894;-74
2021/04/12 04:47:32;;;;;;;49.70;28.22;;;;;;;7.52;41.80;100070.98;351102;113;1960861;-73
2021/04/12 04:48:51;;;;;;;45.13;27.34;;;;;;;7.55;41.78;100064.41;353446;113;1961976;-73
2021/04/12 04:50:35;;;;;;;46.97;28.18;;;;;;;7.59;41.88;100063.02;348073;113;1960958;-72
2021/04/12 04:52:02;;;;;;;46.67;28.89;;;;;;;7.61;42.04;100059.14;351747;113;1965911;-72
2021/04/12 04:53:40;;;;;;;45.34;29.59;;;;;;;7.65;41.98;100062.34;352751;113;1960932;-73
2021/04/12 04:54:52;;;;;;;47.84;29.44;;;;;;;7.68;42.09;100065.50;353544;113;1961907;-72
2021/04/12 04:56:07;;;;;;;49.37;29.77;;;;;;;7.74;41.92;100063.12;354448;113;1960860;-72
2021/04/12 04:57:32;;;;;;;51.91;30.60;;;;;;;7.76;41.99;100058.41;308560;113;2224914;-73
2021/04/12 04:59:02;;;;;;;52.45;30.14;;;;;;;7.78;42.49;100062.59;324513;113;2221890;-73
2021/04/12 05:00:29;;;;;;;49.82;30.33;;;;;;;7.82;41.90;100058.52;353555;113;1962977;-73
2021/04/12 05:01:54;;;;;;;47.34;29.64;;;;;;;7.87;41.86;100064.20;352737;113;1963056;-73
2021/04/12 05:03:23;;;;;;;49.82;31.08;;;;;;;7.91;41.97;100056.59;308666;113;2820957;-72
2021/04/12 05:04:48;;;;;;;49.08;30.52;;;;;;;7.97;42.03;100060.45;352462;114;1960954;-73
2021/04/12 05:06:30;;;;;;;51.94;30.26;;;;;;;8.03;41.84;100055.17;348354;114;1960891;-72
2021/04/12 05:08:12;;;;;;;49.82;29.07;;;;;;;8.08;41.86;100050.09;294408;114;2223813;-72
2021/04/12 05:09:44;;;;;;;45.37;30.12;;;;;;;8.18;41.64;100054.37;349855;114;1961962;-72
2021/04/12 05:10:57;;;;;;;52.92;30.42;;;;;;;8.25;41.55;100052.64;330622;113;1960989;-72
2021/04/12 05:12:40;;;;;;;57.74;29.30;;;;;;;8.06;41.66;100010.93;353789;113;1960931;-72
2021/04/12 05:14:07;;;;;;;51.91;30.48;;;;;;;8.35;41.32;100045.98;354213;113;1960916;-72
2021/04/12 05:15:48;;;;;;;50.13;31.37;;;;;;;8.46;41.26;100044.73;348310;114;1960809;-72
2021/04/12 05:17:14;;;;;;;57.84;34.61;;;;;;;8.52;41.08;100040.47;326354;115;2497959;-72
2021/04/12 05:18:55;;;;;;;50.19;31.06;;;;;;;8.60;40.99;100043.11;353684;114;1960775;-74
2021/04/12 05:20:27;;;;;;;57.05;30.70;;;;;;;8.68;40.90;100044.86;354125;113;1961015;-73
2021/04/12 05:21:42;;;;;;;53.69;32.38;;;;;;;8.78;40.74;100034.66;297730;113;2199782;-74
2021/04/12 05:23:08;;;;;;;48.89;31.84;;;;;;;8.87;40.63;100030.03;302553;117;2076246;-73
2021/04/12 05:24:35;;;;;;;49.81;31.38;;;;;;;8.92;40.40;100033.00;353539;113;1960858;-73
2021/04/12 05:25:57;;;;;;;51.28;31.93;;;;;;;8.97;40.23;100034.11;352672;113;1964003;-73
2021/04/12 05:27:22;;;;;;;48.56;31.30;;;;;;;9.03;40.12;100029.83;352665;113;1960691;-73
2021/04/12 05:29:00;;;;;;;55.97;31.75;;;;;;;9.09;40.01;100030.94;352375;113;1961949;-73
2021/04/12 05:30:18;;;;;;;45.06;30.31;;;;;;;9.13;39.90;100030.39;312035;113;2016951;-73
2021/04/12 05:31:54;;;;;;;46.76;31.13;;;;;;;9.19;39.73;100026.93;351267;107;1959531;-73
2021/04/12 05:33:25;;;;;;;57.04;34.61;;;;;;;9.25;39.64;100025.34;307712;111;2832996;-73
2021/04/12 05:34:55;;;;;;;49.05;29.53;;;;;;;9.31;39.53;100027.27;322287;113;1960921;-73
2021/04/12 05:36:13;;;;;;;49.87;31.49;;;;;;;9.39;39.46;100019.10;319376;113;1960896;-74
2021/04/12 05:37:34;;;;;;;50.65;31.63;;;;;;;9.44;39.40;100029.30;354961;111;1963012;-73
2021/04/12 05:39:03;;;;;;;52.44;31.50;;;;;;;9.48;39.33;100024.38;320868;112;1962013;-73
2021/04/12 05:40:31;;;;;;;53.55;31.41;;;;;;;9.53;39.26;100021.95;309479;112;2224967;-72
2021/04/12 05:42:10;;;;;;;50.06;33.36;;;;;;;9.60;39.21;100020.14;351107;107;1960608;-72
2021/04/12 05:43:41;;;;;;;51.97;30.34;;;;;;;9.63;39.14;100017.91;359022;111;1961985;-74
2021/04/12 05:45:00;;;;;;;52.38;31.33;;;;;;;9.68;39.06;100017.31;360469;110;1961053;-73
2021/04/12 05:46:30;;;;;;;51.51;30.24;;;;;;;9.72;38.97;100018.62;352923;113;1961961;-73
2021/04/12 05:47:57;;;;;;;50.94;30.74;;;;;;;9.76;38.91;100014.49;332201;119;1964108;-73
2021/04/12 05:49:21;;;;;;;42.89;27.79;;;;;;;9.80;38.85;100013.09;298670;112;2237560;-73
2021/04/12 05:50:47;;;;;;;52.13;29.08;;;;;;;9.83;38.88;100007.31;308967;114;2062983;-73
2021/04/12 05:52:13;;;;;;;47.88;29.58;;;;;;;9.87;38.80;100003.21;348968;115;1962075;-73
2021/04/12 05:53:42;;;;;;;45.39;29.74;;;;;;;9.90;38.64;100010.92;341548;117;1962018;-73
2021/04/12 05:55:03;;;;;;;42.79;29.14;;;;;;;9.94;38.56;100015.92;316831;126;1965991;-73
2021/04/12 05:56:16;;;;;;;47.54;31.22;;;;;;;9.96;38.52;100012.00;317504;126;1964062;-73
2021/04/12 05:58:02;;;;;;;50.34;30.06;;;;;;;9.99;38.44;100019.70;317899;119;1962981;-73
2021/04/12 05:59:33;;;;;;;49.49;30.62;;;;;;;10.01;38.44;100016.83;351798;113;1962002;-73
2021/04/12 06:01:08;;;;;;;52.49;31.43;;;;;;;10.05;38.40;100024.32;347612;115;1962001;-74
2021/04/12 06:02:27;;;;;;;43.72;27.18;;;;;;;10.09;38.31;100027.48;301416;115;2836029;-74
2021/04/12 06:03:37;;;;;;;45.88;28.49;;;;;;;10.12;38.14;100029.80;341573;117;1962121;-73
2021/04/12 06:04:59;;;;;;;47.43;30.23;;;;;;;10.16;38.03;100027.53;347279;115;1961950;-73
2021/04/12 06:06:23;;;;;;;43.39;28.44;;;;;;;10.19;37.96;100027.14;332419;114;2292976;-73
2021/04/12 06:07:48;;;;;;;51.04;30.09;;;;;;;10.20;37.87;100020.73;333923;114;2250020;-73
2021/04/12 06:09:17;;;;;;;46.69;28.43;;;;;;;10.23;37.84;100026.56;338703;115;1964075;-72
2021/04/12 06:10:57;;;;;;;44.14;28.23;;;;;;;10.27;37.83;100022.48;315692;114;1961922;-73
2021/04/12 06:12:19;;;;;;;45.65;29.14;;;;;;;10.30;37.86;100021.27;339737;117;1963044;-73
2021/04/12 06:13:51;;;;;;;50.26;30.41;;;;;;;10.37;37.75;100024.00;339946;117;1963979;-73
2021/04/12 06:15:29;;;;;;;51.32;30.28;;;;;;;10.31;37.65;99999.45;346312;115;1961972;-73
2021/04/12 06:17:12;;;;;;;46.74;28.27;;;;;;;10.46;37.60;100012.04;346763;115;1962030;-73
2021/04/12 06:18:19;;;;;;;;;;;;;;;10.51;37.45;100014.98;347117;115;1963994;-73
2021/04/12 06:20:03;;;;;;;41.74;26.93;;;;;;;10.49;37.34;100004.37;351038;107;1961217;-73
2021/04/12 06:21:28;;;;;;;51.58;29.85;;;;;;;10.53;37.30;100018.30;350349;113;1961966;-74
2021/04/12 06:22:59;;;;;;;49.24;29.27;;;;;;;10.55;37.35;100018.95;345462;115;1962971;-74
2021/04/12 06:24:25;;;;;;;44.22;28.89;;;;;;;10.59;37.35;100017.53;347820;107;1964106;-73